メインページ
METAR-TAF:

METAR-TAF

空港 :

イエローナイフ空港

イエローナイフ, ノースウェスト準州, カナダ

緯度: 62-28N, 経度: 114-27W, 海抜: 205m

現時点の気象観測

当レポートは33分前の06:00(UTC)に作成
西/北西の風 4kt
気温 -35°C
湿度 74%
気圧 1011 hPa
視程: 24.1km
高度1600ftの千切れ雲あり

METAR: CYZF 150600Z 29004KT 15SM BKN016 M35/M38 A2984 RMK SC5 SLP144

時間: 23:33 (06:33 UTC)

予報

当レポートは55分前の05:38(UTC)に作成
予報は15日の 06時(UTC)から 16日の 06時(UTC)まで有効
西/北西の風 5kt
視程: 10km
高度1500ftの雲は散在している
高度2500ftの千切れ雲あり
15日の 06時(UTC)から 15日の 24時(UTC)まで一時的に
視程: 10km
高度1500ftの千切れ雲あり
高度2500ftの千切れ雲あり
小雪
16日の 0000時(UTC)から
北西の風 8kt
視程: 10km
高度2000ftの雲はほとんどない
高度5000ftの雲は散在している

TAF: CYZF 150538Z 1506/1606 29005KT P6SM SCT015 BKN025 TEMPO 1506/1524 P6SM -SN BKN015 BKN025 FM160000 31008KT P6SM FEW020 SCT050 RMK NXT FCST BY 151200Z

4,000以上の空港の気象観測と天気予報(METAR報とTAF報)

利用可能な観測所は地図上に黄色い丸と赤い丸で示す。

丸の上にカーソルを重ねると観測所名を参照できる。

次にクリックすると気象観測と天気予報を参照できる。

マップの切り替え:黒色「×」印の緑ボタンをクリックして拡大、「-」印の緑ボタンをクリックして縮小、緑色の三角印をクリックして隣りの地図に切り替え


METAR-TAF: